createdAt,value
2019-01-09T00:01:14.139Z,4.23
2019-01-09T00:03:42.912Z,7.40
2019-01-09T00:06:11.660Z,5.63
2019-01-09T00:08:40.431Z,5.70
2019-01-09T00:11:09.168Z,4.93
2019-01-09T00:13:37.953Z,3.97
2019-01-09T00:16:06.688Z,2.60
2019-01-09T00:18:35.470Z,7.57
2019-01-09T00:21:04.203Z,5.67
2019-01-09T00:23:32.952Z,4.13
2019-01-09T00:26:01.724Z,4.27
2019-01-09T00:28:30.466Z,4.03
2019-01-09T00:31:00.572Z,4.87
2019-01-09T00:33:29.315Z,3.97
2019-01-09T00:35:58.093Z,6.90
2019-01-09T00:38:26.832Z,4.27
2019-01-09T00:40:55.602Z,5.00
2019-01-09T00:43:24.343Z,5.63
2019-01-09T00:45:53.117Z,3.60
2019-01-09T00:48:21.854Z,4.77
2019-01-09T00:50:50.631Z,3.43
2019-01-09T00:53:19.371Z,4.47
2019-01-09T00:55:48.207Z,3.87
2019-01-09T00:58:17.056Z,2.80
2019-01-09T01:00:45.903Z,5.97
2019-01-09T01:03:17.651Z,3.77
2019-01-09T01:06:10.344Z,4.77
2019-01-09T01:09:04.075Z,2.53
2019-01-09T01:11:41.683Z,6.37
2019-01-09T01:14:36.219Z,2.87
2019-01-09T01:17:25.971Z,3.57
2019-01-09T01:20:06.520Z,5.37
2019-01-09T01:23:02.799Z,3.83
2019-01-09T01:25:49.815Z,4.57
2019-01-09T01:28:30.448Z,3.90
2019-01-09T01:31:07.996Z,2.67
2019-01-09T01:33:45.445Z,3.03
2019-01-09T01:36:23.023Z,2.97
2019-01-09T01:39:06.564Z,2.70
2019-01-09T01:41:53.556Z,2.87
2019-01-09T01:44:28.292Z,3.97
2019-01-09T01:47:14.872Z,1.90
2019-01-09T01:50:01.592Z,3.90
2019-01-09T01:52:50.832Z,2.80
2019-01-09T01:55:55.786Z,4.83
2019-01-09T01:58:42.049Z,5.40
2019-01-09T02:01:33.403Z,3.63
2019-01-09T02:04:21.351Z,3.13
2019-01-09T02:06:55.740Z,5.43
2019-01-09T02:09:36.216Z,2.40
2019-01-09T02:12:07.940Z,4.43
2019-01-09T02:14:48.539Z,2.27
2019-01-09T02:17:22.979Z,3.20
2019-01-09T02:20:09.540Z,3.90
2019-01-09T02:22:57.804Z,2.20
2019-01-09T02:25:41.220Z,4.57
2019-01-09T02:28:21.248Z,1.73
2019-01-09T02:31:11.003Z,2.30
2019-01-09T02:33:39.772Z,2.37
2019-01-09T02:36:13.290Z,2.43
2019-01-09T02:38:38.949Z,3.00
2019-01-09T02:41:07.684Z,1.33
2019-01-09T02:43:36.462Z,1.50
2019-01-09T02:46:05.199Z,1.57
2019-01-09T02:48:33.971Z,1.43
2019-01-09T02:51:02.790Z,1.23
2019-01-09T02:53:31.529Z,3.63
2019-01-09T02:56:00.333Z,3.77
2019-01-09T02:58:29.064Z,2.10
2019-01-09T03:00:58.653Z,1.67
2019-01-09T03:03:27.483Z,1.03
2019-01-09T03:05:56.340Z,1.83
2019-01-09T03:08:25.184Z,1.70
2019-01-09T03:10:54.059Z,2.40
2019-01-09T03:13:22.897Z,3.43
2019-01-09T03:15:51.798Z,0.53
2019-01-09T03:18:20.624Z,1.20
2019-01-09T03:20:49.517Z,1.53
2019-01-09T03:23:18.368Z,2.70
2019-01-09T03:25:47.237Z,1.77
2019-01-09T03:28:16.230Z,1.77
2019-01-09T03:30:47.020Z,2.03
2019-01-09T03:33:15.888Z,1.27
2019-01-09T03:35:44.737Z,1.67
2019-01-09T03:38:13.589Z,2.07
2019-01-09T03:40:42.459Z,1.50
2019-01-09T03:43:11.306Z,2.20
2019-01-09T03:45:40.162Z,2.60
2019-01-09T03:48:08.932Z,2.00
2019-01-09T03:50:37.788Z,1.77
2019-01-09T03:53:06.645Z,1.87
2019-01-09T03:55:35.571Z,1.17
2019-01-09T03:58:04.371Z,1.67
2019-01-09T04:00:33.257Z,2.10
2019-01-09T04:03:02.100Z,2.67
2019-01-09T04:05:30.969Z,2.23
2019-01-09T04:07:59.806Z,1.83
2019-01-09T04:10:28.684Z,4.13
2019-01-09T04:12:57.528Z,2.70
2019-01-09T04:15:26.704Z,1.93
2019-01-09T04:17:55.538Z,1.93
2019-01-09T04:20:24.431Z,1.63
2019-01-09T04:22:53.268Z,3.67
2019-01-09T04:25:22.141Z,2.20
2019-01-09T04:27:50.980Z,1.50
2019-01-09T04:30:19.875Z,2.17
2019-01-09T04:32:48.726Z,2.60
2019-01-09T04:35:17.595Z,2.90
2019-01-09T04:37:46.439Z,1.97
2019-01-09T04:40:15.291Z,1.83
2019-01-09T04:42:44.144Z,4.13
2019-01-09T04:45:12.977Z,1.90
2019-01-09T04:47:41.853Z,2.23
2019-01-09T04:50:10.692Z,4.67
2019-01-09T04:52:39.585Z,2.80
2019-01-09T04:55:08.445Z,2.00
2019-01-09T04:57:38.204Z,2.90
2019-01-09T05:00:08.065Z,1.80
2019-01-09T05:02:36.948Z,1.93
2019-01-09T05:05:06.012Z,3.20
2019-01-09T05:07:34.878Z,2.60
2019-01-09T05:10:04.629Z,2.27
2019-01-09T05:12:33.501Z,2.73
2019-01-09T05:15:02.346Z,1.60
2019-01-09T05:17:31.235Z,1.13
2019-01-09T05:20:00.093Z,1.87
2019-01-09T05:22:29.052Z,1.67
2019-01-09T05:24:57.917Z,1.53
2019-01-09T05:27:27.185Z,1.40
2019-01-09T05:29:56.042Z,2.97
2019-01-09T05:32:24.829Z,0.30
2019-01-09T05:34:53.655Z,2.03
2019-01-09T05:37:22.537Z,2.33
2019-01-09T05:39:51.356Z,2.73
2019-01-09T05:42:20.220Z,2.50
2019-01-09T05:44:49.058Z,1.53
2019-01-09T05:47:17.925Z,1.93
2019-01-09T05:49:46.797Z,1.80
2019-01-09T05:52:15.582Z,1.93
2019-01-09T05:54:44.405Z,4.37
2019-01-09T05:57:13.274Z,1.30
2019-01-09T05:59:42.115Z,1.03
2019-01-09T06:02:11.909Z,1.87
2019-01-09T06:04:40.750Z,1.13
2019-01-09T06:07:18.131Z,1.43
2019-01-09T06:09:40.098Z,1.63
2019-01-09T06:12:08.998Z,1.63
2019-01-09T06:14:37.825Z,1.37
2019-01-09T06:17:06.654Z,2.13
2019-01-09T06:19:35.457Z,1.73
2019-01-09T06:22:04.251Z,0.83
2019-01-09T06:24:32.991Z,1.93
2019-01-09T06:27:01.773Z,1.70
2019-01-09T06:29:30.512Z,2.60
2019-01-09T06:31:59.285Z,1.13
2019-01-09T06:34:28.032Z,1.93
2019-01-09T06:36:56.780Z,3.20
2019-01-09T06:39:25.550Z,0.90
2019-01-09T06:41:54.296Z,1.60
2019-01-09T06:44:23.076Z,0.87
2019-01-09T06:46:51.828Z,2.00
2019-01-09T06:49:20.588Z,2.37
2019-01-09T06:51:49.333Z,1.50
2019-01-09T06:54:18.109Z,1.53
2019-01-09T06:56:46.920Z,1.63
2019-01-09T06:59:16.617Z,3.03
2019-01-09T07:01:45.368Z,0.70
2019-01-09T07:04:14.200Z,2.87
2019-01-09T07:06:42.949Z,1.23
2019-01-09T07:09:11.720Z,1.33
2019-01-09T07:11:40.467Z,1.00
2019-01-09T07:14:09.239Z,3.67
2019-01-09T07:16:37.991Z,2.83
2019-01-09T07:19:06.752Z,1.43
2019-01-09T07:21:35.566Z,1.67
2019-01-09T07:24:04.339Z,0.90
2019-01-09T07:26:33.078Z,1.53
2019-01-09T07:29:02.760Z,2.20
2019-01-09T07:31:31.579Z,1.70
2019-01-09T07:34:00.349Z,3.43
2019-01-09T07:36:29.156Z,2.07
2019-01-09T07:38:57.937Z,4.13
2019-01-09T07:41:26.683Z,2.63
2019-01-09T07:43:55.461Z,2.37
2019-01-09T07:46:24.204Z,1.43
2019-01-09T07:48:52.977Z,3.17
2019-01-09T07:51:21.730Z,1.53
2019-01-09T07:53:50.500Z,1.43
2019-01-09T07:56:19.475Z,1.77
2019-01-09T07:58:48.307Z,3.70
2019-01-09T08:01:17.051Z,2.97
2019-01-09T08:03:45.836Z,3.40
2019-01-09T08:06:14.840Z,1.27
2019-01-09T08:08:43.615Z,2.60
2019-01-09T08:11:12.359Z,1.63
2019-01-09T08:13:41.136Z,2.00
2019-01-09T08:16:09.876Z,3.27
2019-01-09T08:18:38.656Z,2.50
2019-01-09T08:21:07.396Z,1.77
2019-01-09T08:23:36.214Z,2.10
2019-01-09T08:26:05.066Z,3.53
2019-01-09T08:28:33.800Z,2.73
2019-01-09T08:31:02.646Z,2.20
2019-01-09T08:33:31.471Z,2.20
2019-01-09T08:36:00.273Z,1.80
2019-01-09T08:38:29.050Z,1.57
2019-01-09T08:40:57.988Z,3.07
2019-01-09T08:43:36.085Z,2.50
2019-01-09T08:46:05.067Z,1.70
2019-01-09T08:48:33.768Z,1.50
2019-01-09T08:51:02.547Z,1.30
2019-01-09T08:53:31.292Z,4.93
2019-01-09T08:56:01.580Z,2.17
2019-01-09T08:58:30.871Z,4.40
2019-01-09T09:00:59.652Z,2.63
2019-01-09T09:03:28.392Z,3.37
2019-01-09T09:05:57.164Z,2.30
2019-01-09T09:08:26.815Z,2.27
2019-01-09T09:10:55.600Z,3.03
2019-01-09T09:13:27.281Z,3.77
2019-01-09T09:15:56.065Z,3.07
2019-01-09T09:18:24.800Z,4.17
2019-01-09T09:20:53.580Z,3.03
2019-01-09T09:23:22.319Z,3.80
2019-01-09T09:25:51.100Z,4.17
2019-01-09T09:28:19.844Z,3.90
2019-01-09T09:30:48.628Z,3.63
2019-01-09T09:33:17.372Z,4.73
2019-01-09T09:35:46.153Z,2.80
2019-01-09T09:38:20.437Z,3.67
2019-01-09T09:40:47.940Z,2.57
2019-01-09T09:43:16.680Z,3.63
2019-01-09T09:45:45.458Z,2.27
2019-01-09T09:48:14.203Z,4.97
2019-01-09T09:50:42.981Z,4.53
2019-01-09T09:53:11.746Z,5.30
2019-01-09T09:55:40.504Z,1.37
2019-01-09T09:58:09.254Z,3.63
2019-01-09T10:00:38.033Z,2.73
2019-01-09T10:03:06.783Z,1.33
2019-01-09T10:05:35.552Z,4.43
2019-01-09T10:08:04.296Z,3.73
2019-01-09T10:10:33.143Z,4.77
2019-01-09T10:13:01.956Z,2.90
2019-01-09T10:15:30.924Z,3.43
2019-01-09T10:18:02.843Z,2.80
2019-01-09T10:20:31.660Z,2.27
2019-01-09T10:23:00.878Z,1.97
2019-01-09T10:25:29.689Z,3.97
2019-01-09T10:27:58.465Z,2.77
2019-01-09T10:30:27.456Z,1.77
2019-01-09T10:32:56.276Z,4.73
2019-01-09T10:35:25.043Z,1.47
2019-01-09T10:37:53.796Z,3.50
2019-01-09T10:40:22.764Z,3.93
2019-01-09T10:42:51.504Z,4.03
2019-01-09T10:45:22.089Z,2.10
2019-01-09T10:47:50.836Z,4.57
2019-01-09T10:50:19.617Z,3.57
2019-01-09T10:52:48.359Z,2.70
2019-01-09T10:55:18.922Z,2.17
2019-01-09T10:57:47.796Z,3.80
2019-01-09T11:00:24.747Z,3.00
2019-01-09T11:02:53.711Z,3.93
2019-01-09T11:05:22.845Z,2.77
2019-01-09T11:07:51.712Z,2.93
2019-01-09T11:10:20.928Z,1.63
2019-01-09T11:12:49.870Z,4.83
2019-01-09T11:15:20.316Z,2.57
2019-01-09T11:17:49.251Z,3.63
2019-01-09T11:20:20.007Z,3.13
2019-01-09T11:22:48.905Z,2.33
2019-01-09T11:25:22.954Z,1.77
2019-01-09T11:27:51.727Z,3.57
2019-01-09T11:30:20.681Z,2.77
2019-01-09T11:32:49.445Z,2.50
2019-01-09T11:35:23.257Z,2.80
2019-01-09T11:37:53.198Z,1.77
2019-01-09T11:40:22.284Z,1.67
2019-01-09T11:42:51.128Z,4.90
2019-01-09T11:45:20.578Z,2.80
2019-01-09T11:47:49.556Z,2.03
2019-01-09T11:50:18.504Z,3.80
2019-01-09T11:52:47.518Z,1.87
2019-01-09T11:55:16.565Z,3.00
2019-01-09T11:57:45.420Z,3.13
2019-01-09T12:00:25.876Z,1.90
2019-01-09T12:02:54.715Z,3.33
2019-01-09T12:05:23.469Z,3.87
2019-01-09T12:07:52.238Z,4.17
2019-01-09T12:10:30.043Z,2.40
2019-01-09T12:12:53.107Z,2.47
2019-01-09T12:15:21.853Z,1.93
2019-01-09T12:17:50.640Z,3.47
2019-01-09T12:20:20.275Z,4.40
2019-01-09T12:22:49.659Z,3.03
2019-01-09T12:25:18.402Z,4.27
2019-01-09T12:27:47.252Z,2.37
2019-01-09T12:30:18.957Z,2.23
2019-01-09T12:32:47.724Z,2.43
2019-01-09T12:35:16.556Z,3.40
2019-01-09T12:37:45.323Z,2.63
2019-01-09T12:40:14.163Z,1.90
2019-01-09T12:42:42.915Z,1.90
2019-01-09T12:45:14.436Z,2.37
2019-01-09T12:47:43.141Z,1.90
2019-01-09T12:50:20.811Z,1.80
2019-01-09T12:52:49.638Z,2.10
2019-01-09T12:55:18.422Z,2.57
2019-01-09T12:57:47.182Z,3.40
2019-01-09T13:00:24.817Z,1.70
2019-01-09T13:02:53.826Z,2.80
2019-01-09T13:05:22.663Z,2.33
2019-01-09T13:07:51.585Z,1.87
2019-01-09T13:10:20.372Z,1.87
2019-01-09T13:12:49.229Z,3.00
2019-01-09T13:15:18.085Z,2.07
2019-01-09T13:17:46.970Z,2.37
2019-01-09T13:20:17.200Z,3.03
2019-01-09T13:22:46.068Z,1.80
2019-01-09T13:25:15.622Z,2.60
2019-01-09T13:27:44.800Z,1.23
2019-01-09T13:30:18.386Z,1.87
2019-01-09T13:32:47.346Z,1.63
2019-01-09T13:35:17.254Z,1.23
2019-01-09T13:37:46.180Z,2.27
2019-01-09T13:40:17.296Z,1.40
2019-01-09T13:42:46.182Z,2.23
2019-01-09T13:45:17.205Z,0.93
2019-01-09T13:47:46.265Z,1.43
2019-01-09T13:50:17.088Z,2.27
2019-01-09T13:52:45.949Z,1.50
2019-01-09T13:55:16.354Z,3.80
2019-01-09T13:57:45.146Z,1.70
2019-01-09T14:00:18.711Z,1.67
2019-01-09T14:02:47.560Z,1.90
2019-01-09T14:05:16.733Z,3.37
2019-01-09T14:07:46.070Z,2.33
2019-01-09T14:10:17.132Z,2.47
2019-01-09T14:12:45.977Z,1.73
2019-01-09T14:15:17.358Z,2.17
2019-01-09T14:17:48.116Z,3.40
2019-01-09T14:20:17.003Z,3.03
2019-01-09T14:22:46.801Z,1.87
2019-01-09T14:25:16.925Z,5.40
2019-01-09T14:27:45.748Z,2.27
2019-01-09T14:30:17.282Z,5.33
2019-01-09T14:32:46.101Z,5.17
2019-01-09T14:35:14.966Z,2.80
2019-01-09T14:37:49.522Z,2.33
2019-01-09T14:40:19.991Z,2.20
2019-01-09T14:42:48.751Z,1.83
2019-01-09T14:45:18.424Z,1.90
2019-01-09T14:47:47.298Z,4.53
2019-01-09T14:50:18.737Z,1.57
2019-01-09T14:52:47.569Z,2.83
2019-01-09T14:55:16.820Z,2.07
2019-01-09T14:57:46.270Z,2.03
2019-01-09T15:00:23.948Z,2.73
2019-01-09T15:02:52.873Z,3.50
2019-01-09T15:05:22.124Z,1.57
2019-01-09T15:07:50.982Z,2.77
2019-01-09T15:10:22.049Z,6.17
2019-01-09T15:12:50.882Z,4.07
2019-01-09T15:15:19.674Z,2.23
2019-01-09T15:17:48.508Z,4.50
2019-01-09T15:20:21.028Z,4.03
2019-01-09T15:22:49.892Z,4.17
2019-01-09T15:25:19.424Z,3.67
2019-01-09T15:27:48.276Z,2.53
2019-01-09T15:30:23.262Z,3.97
2019-01-09T15:32:52.323Z,2.53
2019-01-09T15:35:21.252Z,2.53
2019-01-09T15:37:50.125Z,2.60
2019-01-09T15:40:21.055Z,2.73
2019-01-09T15:42:50.313Z,3.03
2019-01-09T15:45:19.136Z,3.13
2019-01-09T15:47:48.186Z,5.40
2019-01-09T15:50:22.026Z,2.53
2019-01-09T15:52:50.884Z,4.30
2019-01-09T15:55:19.832Z,3.60
2019-01-09T15:57:50.706Z,2.53
2019-01-09T16:00:25.306Z,3.10
2019-01-09T16:02:54.177Z,3.67
2019-01-09T16:05:23.006Z,3.83
2019-01-09T16:07:51.853Z,3.13
2019-01-09T16:10:24.374Z,3.87
2019-01-09T16:12:53.238Z,4.53
2019-01-09T16:15:41.314Z,3.77
2019-01-09T16:18:10.085Z,4.63
2019-01-09T16:20:38.823Z,5.37
2019-01-09T16:23:07.663Z,5.20
2019-01-09T16:25:36.400Z,6.03
2019-01-09T16:28:06.397Z,7.77
2019-01-09T16:30:46.621Z,7.23
2019-01-09T16:33:15.480Z,5.60
2019-01-09T16:35:44.220Z,5.87
2019-01-09T16:38:12.989Z,4.13
2019-01-09T16:40:41.821Z,2.70
2019-01-09T16:43:10.610Z,3.30
2019-01-09T16:45:39.451Z,2.87
2019-01-09T16:48:08.230Z,6.03
2019-01-09T16:50:36.967Z,6.80
2019-01-09T16:53:05.736Z,4.30
2019-01-09T16:55:34.482Z,3.77
2019-01-09T16:58:03.464Z,8.10
2019-01-09T17:00:40.539Z,8.53
2019-01-09T17:03:09.307Z,5.30
2019-01-09T17:05:38.360Z,4.73
2019-01-09T17:08:07.944Z,7.03
2019-01-09T17:10:42.563Z,5.70
2019-01-09T17:13:11.732Z,5.27
2019-01-09T17:15:40.467Z,6.10
2019-01-09T17:18:09.240Z,5.60
2019-01-09T17:20:37.979Z,5.57
2019-01-09T17:23:06.760Z,3.20
2019-01-09T17:25:35.519Z,5.07
2019-01-09T17:28:04.892Z,7.20
2019-01-09T17:30:33.731Z,3.63
2019-01-09T17:33:02.500Z,3.00
2019-01-09T17:35:31.253Z,4.57
2019-01-09T17:38:01.068Z,3.70
2019-01-09T17:40:29.891Z,3.80
2019-01-09T17:42:58.796Z,3.60
2019-01-09T17:45:27.585Z,3.40
2019-01-09T17:47:56.324Z,4.20
2019-01-09T17:50:30.843Z,3.80
2019-01-09T17:52:59.664Z,6.93
2019-01-09T17:55:28.588Z,4.27
2019-01-09T17:57:57.427Z,3.80
2019-01-09T18:00:31.881Z,3.97
2019-01-09T18:03:00.992Z,4.40
2019-01-09T18:05:29.825Z,6.73
2019-01-09T18:07:58.753Z,5.60
2019-01-09T18:10:27.753Z,4.57
2019-01-09T18:13:05.627Z,4.13
2019-01-09T18:15:34.399Z,5.30
2019-01-09T18:18:03.143Z,3.30
2019-01-09T18:20:33.285Z,6.03
2019-01-09T18:23:02.284Z,6.17
2019-01-09T18:25:31.268Z,5.17
2019-01-09T18:28:00.012Z,3.73
2019-01-09T18:30:37.458Z,4.10
2019-01-09T18:33:09.207Z,5.07
2019-01-09T18:35:58.713Z,3.63
2019-01-09T18:38:36.346Z,3.77
2019-01-09T18:41:13.548Z,4.10
2019-01-09T18:44:01.435Z,4.03
2019-01-09T18:46:57.215Z,4.43
2019-01-09T18:49:43.308Z,4.03
2019-01-09T18:52:30.070Z,7.57
2019-01-09T18:54:58.807Z,3.90
2019-01-09T18:57:27.593Z,3.33
2019-01-09T18:59:56.529Z,5.40
2019-01-09T19:02:25.282Z,4.53
2019-01-09T19:04:54.055Z,4.83
2019-01-09T19:07:22.796Z,4.00
2019-01-09T19:09:51.678Z,4.27
2019-01-09T19:12:20.440Z,5.80
2019-01-09T19:14:52.156Z,4.70
2019-01-09T19:17:20.896Z,4.10
2019-01-09T19:19:49.672Z,4.70
2019-01-09T19:22:18.507Z,3.43
2019-01-09T19:24:50.465Z,3.47
2019-01-09T19:27:19.200Z,4.57
2019-01-09T19:29:47.997Z,5.37
2019-01-09T19:32:20.037Z,4.60
2019-01-09T19:34:48.898Z,4.87
2019-01-09T19:37:17.838Z,4.00
2019-01-09T19:39:47.052Z,4.20
2019-01-09T19:42:15.880Z,3.70
2019-01-09T19:44:44.732Z,3.87
2019-01-09T19:47:13.496Z,4.43
2019-01-09T19:49:48.079Z,4.20
2019-01-09T19:52:16.816Z,5.20
2019-01-09T19:54:45.596Z,5.70
2019-01-09T19:57:15.036Z,6.90
2019-01-09T19:59:43.987Z,4.30
2019-01-09T20:02:12.727Z,6.70
2019-01-09T20:04:41.490Z,4.73
2019-01-09T20:07:10.361Z,5.60
2019-01-09T20:09:39.200Z,6.80
2019-01-09T20:12:07.993Z,5.27
2019-01-09T20:14:36.716Z,4.43
2019-01-09T20:17:05.556Z,5.27
2019-01-09T20:19:34.337Z,5.20
2019-01-09T20:22:03.352Z,5.57
2019-01-09T20:24:32.131Z,4.90
2019-01-09T20:27:00.972Z,5.40
2019-01-09T20:29:30.012Z,8.00
2019-01-09T20:31:58.818Z,6.10
2019-01-09T20:34:27.656Z,5.57
2019-01-09T20:36:56.637Z,7.83
2019-01-09T20:39:25.589Z,6.73
2019-01-09T20:41:54.372Z,7.93
2019-01-09T20:44:23.198Z,8.07
2019-01-09T20:46:51.975Z,6.60
2019-01-09T20:49:20.769Z,5.20
2019-01-09T20:51:49.605Z,5.13
2019-01-09T20:54:21.423Z,4.10
2019-01-09T20:56:50.388Z,6.80
2019-01-09T20:59:19.219Z,4.33
2019-01-09T21:01:48.113Z,4.63
2019-01-09T21:04:16.917Z,5.03
2019-01-09T21:06:45.651Z,5.10
2019-01-09T21:09:14.653Z,5.13
2019-01-09T21:11:44.448Z,5.60
2019-01-09T21:14:13.576Z,5.13
2019-01-09T21:16:42.389Z,6.00
2019-01-09T21:19:11.168Z,4.63
2019-01-09T21:21:39.942Z,4.90
2019-01-09T21:24:08.789Z,5.67
2019-01-09T21:26:37.623Z,4.87
2019-01-09T21:29:06.436Z,4.10
2019-01-09T21:31:35.428Z,4.27
2019-01-09T21:34:04.399Z,3.50
2019-01-09T21:36:33.249Z,5.27
2019-01-09T21:39:01.996Z,4.60
2019-01-09T21:41:34.607Z,4.57
2019-01-09T21:44:03.556Z,6.23
2019-01-09T21:46:33.476Z,4.30
2019-01-09T21:49:02.435Z,3.00
2019-01-09T21:51:31.219Z,3.70
2019-01-09T21:54:00.360Z,3.27
2019-01-09T21:56:29.465Z,3.30
2019-01-09T21:58:59.886Z,2.97
2019-01-09T22:01:29.049Z,3.37
2019-01-09T22:04:10.009Z,3.63
2019-01-09T22:06:43.889Z,2.60
2019-01-09T22:09:43.074Z,2.80
2019-01-09T22:12:18.116Z,2.33
2019-01-09T22:14:48.367Z,2.50
2019-01-09T22:17:17.308Z,2.57
2019-01-09T22:19:46.124Z,2.73
2019-01-09T22:22:16.543Z,2.20
2019-01-09T22:24:45.443Z,2.20
2019-01-09T22:27:14.427Z,2.53
2019-01-09T22:29:43.161Z,2.90
2019-01-09T22:32:11.974Z,2.83
2019-01-09T22:34:40.881Z,2.20
2019-01-09T22:37:09.652Z,2.30
2019-01-09T22:39:38.396Z,2.67
2019-01-09T22:42:11.771Z,2.43
2019-01-09T22:44:37.568Z,2.10
2019-01-09T22:47:06.335Z,1.77
2019-01-09T22:49:35.084Z,3.00
2019-01-09T22:52:03.940Z,2.00
2019-01-09T22:54:36.982Z,2.00
2019-01-09T22:57:03.112Z,2.60
2019-01-09T22:59:31.855Z,1.67
2019-01-09T23:02:00.627Z,1.90
2019-01-09T23:04:29.375Z,2.83
2019-01-09T23:06:58.420Z,3.10
2019-01-09T23:09:27.164Z,1.50
2019-01-09T23:11:55.937Z,1.87
2019-01-09T23:14:24.673Z,1.30
2019-01-09T23:16:53.416Z,1.90
2019-01-09T23:19:22.281Z,2.03
2019-01-09T23:21:51.128Z,1.63
2019-01-09T23:24:19.896Z,2.03
2019-01-09T23:26:48.636Z,1.70
2019-01-09T23:29:18.272Z,1.80
2019-01-09T23:31:47.085Z,2.30
2019-01-09T23:34:15.857Z,1.60
2019-01-09T23:36:44.603Z,1.70
2019-01-09T23:39:13.372Z,2.43
2019-01-09T23:41:42.211Z,2.20
2019-01-09T23:44:10.984Z,3.40
2019-01-09T23:46:39.723Z,2.47
2019-01-09T23:49:08.588Z,2.57
2019-01-09T23:51:37.350Z,4.10
2019-01-09T23:54:06.143Z,2.70
2019-01-09T23:56:34.860Z,2.03
2019-01-09T23:59:04.528Z,1.87
